Time;durP1;ratioP1;P1;durP2;ratioP2;P2;SDS_P1;SDS_P2;PMS_P1;PMS_P2;Temp;Humidity;BMP_temperature;BMP_pressure;BME280_temperature;BME280_humidity;BME280_pressure;Samples;Min_cycle;Max_cycle;Signal;HPM_P1;HPM_P2
2023/02/09 00:03:58;;;;;;;6.13;3.75;;;9.20;60.40;;;;;;20917930;28;20045;-59
2023/02/09 00:14:01;;;;;;;6.05;3.65;;;9.10;60.50;;;;;;20917154;28;20069;-58
2023/02/09 00:24:22;;;;;;;5.07;3.40;;;9.10;60.60;;;;;;20917252;28;20052;-60
2023/02/09 00:34:46;;;;;;;4.80;3.63;;;9.10;60.60;;;;;;20915845;28;20417;-65
2023/02/09 00:45:08;;;;;;;5.70;3.85;;;9.00;60.80;;;;;;20915659;28;20057;-61
2023/02/09 00:55:31;;;;;;;5.28;3.38;;;8.80;61.10;;;;;;20914583;28;20048;-60
2023/02/09 01:05:52;;;;;;;5.22;3.53;;;8.90;61.80;;;;;;20914035;28;20056;-62
2023/02/09 01:16:09;;;;;;;5.07;3.35;;;8.80;62.00;;;;;;20912189;28;20053;-59
2023/02/09 01:26:15;;;;;;;6.10;3.55;;;8.80;63.40;;;;;;20913126;28;20056;-59
2023/02/09 01:36:20;;;;;;;6.23;3.87;;;8.70;64.00;;;;;;20912063;28;20060;-61
2023/02/09 01:46:24;;;;;;;5.40;3.88;;;8.60;64.90;;;;;;20912081;28;20053;-61
2023/02/09 01:56:29;;;;;;;4.00;2.97;;;8.60;65.00;;;;;;20917796;28;20706;-59
2023/02/09 02:06:33;;;;;;;6.38;3.80;;;8.60;66.00;;;;;;20928669;28;20048;-63
2023/02/09 02:16:57;;;;;;;5.35;3.50;;;8.50;66.00;;;;;;20926237;28;20057;-61
2023/02/09 02:27:07;;;;;;;7.93;3.70;;;8.40;65.90;;;;;;20925850;28;20136;-62
2023/02/09 02:37:38;;;;;;;6.70;3.60;;;8.30;65.40;;;;;;20924382;28;20041;-63
2023/02/09 02:47:43;;;;;;;8.95;3.78;;;8.30;65.20;;;;;;20752387;28;20181;-60
2023/02/09 02:57:49;;;;;;;6.78;3.85;;;8.30;65.40;;;;;;20750572;28;20068;-63
2023/02/09 03:07:51;;;;;;;8.35;4.32;;;8.30;65.40;;;;;;20749226;28;20443;-57
2023/02/09 03:18:00;;;;;;;7.13;3.88;;;8.20;65.60;;;;;;20770463;28;20072;-61
2023/02/09 03:28:08;;;;;;;6.78;3.97;;;8.20;65.40;;;;;;20920943;28;20562;-61
2023/02/09 03:38:10;;;;;;;6.38;4.22;;;8.30;64.80;;;;;;20921167;28;20041;-60
2023/02/09 03:48:14;;;;;;;7.05;4.15;;;8.40;64.30;;;;;;20920614;28;20516;-63
2023/02/09 03:58:16;;;;;;;5.95;4.38;;;8.40;63.80;;;;;;20920041;28;20485;-62
2023/02/09 04:08:18;;;;;;;6.53;4.20;;;8.30;63.80;;;;;;20919065;28;20052;-59
2023/02/09 04:18:20;;;;;;;6.70;3.95;;;8.30;63.70;;;;;;20916245;28;20048;-59
2023/02/09 04:28:23;;;;;;;6.15;4.07;;;8.20;64.30;;;;;;20916331;28;20144;-61
2023/02/09 04:38:26;;;;;;;6.13;4.53;;;8.10;64.50;;;;;;20915398;28;20045;-59
2023/02/09 04:48:36;;;;;;;6.90;3.90;;;8.00;64.90;;;;;;20915864;28;20053;-57
2023/02/09 05:08:58;;;;;;;8.73;4.45;;;7.90;65.60;;;;;;20913660;28;20056;-62
2023/02/09 05:19:00;;;;;;;7.75;5.32;;;7.80;66.10;;;;;;20914843;28;20076;-62
2023/02/09 05:29:03;;;;;;;7.65;4.70;;;7.60;67.00;;;;;;20925435;28;20061;-62
2023/02/09 05:39:05;;;;;;;7.03;4.90;;;7.50;67.20;;;;;;20943743;28;20044;-62
2023/02/09 05:49:07;;;;;;;8.43;5.20;;;7.60;67.00;;;;;;20940538;28;20396;-60
2023/02/09 05:59:09;;;;;;;9.48;4.90;;;7.70;66.50;;;;;;20938917;28;20110;-60
2023/02/09 06:09:12;;;;;;;6.80;4.57;;;7.70;66.30;;;;;;20939566;28;20045;-62
2023/02/09 06:19:17;;;;;;;9.40;5.05;;;7.60;66.60;;;;;;20939293;28;20045;-60
2023/02/09 06:29:19;;;;;;;7.25;4.80;;;7.60;66.30;;;;;;20937453;28;20063;-58
2023/02/09 06:39:21;;;;;;;9.00;4.93;;;7.80;65.70;;;;;;20936655;28;20216;-57
2023/02/09 06:49:25;;;;;;;9.75;6.07;;;7.80;65.70;;;;;;20925279;28;20055;-58
2023/02/09 06:59:28;;;;;;;9.23;5.68;;;7.80;65.90;;;;;;20922651;28;20076;-58
2023/02/09 07:09:29;;;;;;;9.50;5.70;;;7.80;66.30;;;;;;20923970;28;20484;-58
2023/02/09 07:19:32;;;;;;;9.70;5.90;;;7.80;66.40;;;;;;20919783;28;20041;-58
2023/02/09 07:29:33;;;;;;;10.23;6.20;;;7.80;66.30;;;;;;20919800;28;20144;-58
2023/02/09 07:39:35;;;;;;;10.60;6.13;;;7.80;66.90;;;;;;20921206;28;20080;-57
2023/02/09 07:49:37;;;;;;;10.18;6.90;;;7.90;66.70;;;;;;20920678;28;20110;-57
2023/02/09 07:59:41;;;;;;;12.35;7.60;;;7.90;66.90;;;;;;20918359;28;20420;-57
2023/02/09 08:09:45;;;;;;;13.85;7.60;;;7.80;67.30;;;;;;20917897;28;20049;-57
2023/02/09 08:20:00;;;;;;;11.57;6.15;;;8.00;67.00;;;;;;20916408;28;20433;-56
2023/02/09 08:30:02;;;;;;;10.27;6.17;;;8.20;66.00;;;;;;20915246;28;20057;-58
2023/02/09 08:40:04;;;;;;;7.65;4.47;;;8.20;65.70;;;;;;20916174;28;20297;-59
2023/02/09 08:50:06;;;;;;;5.43;3.50;;;8.30;64.80;;;;;;20917583;28;20071;-59
2023/02/09 09:00:08;;;;;;;9.45;4.13;;;8.30;63.90;;;;;;20914645;28;20122;-58
2023/02/09 09:10:10;;;;;;;7.43;3.60;;;8.30;64.00;;;;;;20913521;28;20085;-58
2023/02/09 09:20:12;;;;;;;9.55;4.28;;;8.50;63.00;;;;;;20913175;28;20123;-57
2023/02/09 09:30:13;;;;;;;9.43;4.35;;;8.50;62.90;;;;;;20911977;28;20523;-58
2023/02/09 09:40:30;;;;;;;5.53;3.67;;;8.60;62.80;;;;;;20912495;28;20045;-63
2023/02/09 09:50:38;;;;;;;8.98;4.50;;;8.70;62.30;;;;;;20912059;28;20504;-63
2023/02/09 10:00:41;;;;;;;10.82;4.10;;;8.80;62.20;;;;;;20910913;28;20052;-65
2023/02/09 10:11:05;;;;;;;7.72;3.65;;;9.10;61.30;;;;;;20910614;28;20405;-62
2023/02/09 10:21:10;;;;;;;4.82;3.05;;;9.40;61.00;;;;;;20918787;28;20052;-58
2023/02/09 10:31:41;;;;;;;10.40;4.28;;;10.50;62.60;;;;;;20923689;28;20056;-71
2023/02/09 10:41:48;;;;;;;4.13;3.22;;;10.40;57.40;;;;;;20924074;28;20045;-65
2023/02/09 10:51:50;;;;;;;4.32;2.75;;;10.10;57.10;;;;;;20924067;28;20056;-60
2023/02/09 11:01:57;;;;;;;7.05;3.53;;;9.90;57.30;;;;;;20922943;28;20044;-67
2023/02/09 11:11:59;;;;;;;7.22;3.80;;;11.10;54.40;;;;;;20922597;28;20477;-60
2023/02/09 11:22:19;;;;;;;8.55;5.35;;;10.40;55.80;;;;;;20921552;28;20133;-59
2023/02/09 11:33:05;;;;;;;10.07;4.78;;;10.20;56.50;;;;;;20920081;28;20152;-63
2023/02/09 11:43:09;;;;;;;10.90;5.18;;;10.30;56.00;;;;;;20745798;28;20064;-60
2023/02/09 11:53:31;;;;;;;7.47;4.78;;;10.00;56.70;;;;;;20745851;28;20414;-58
2023/02/09 12:03:32;;;;;;;11.52;5.10;;;10.00;56.60;;;;;;20745748;28;20081;-67
2023/02/09 12:13:55;;;;;;;7.68;4.90;;;9.90;57.00;;;;;;20808539;28;20483;-64
2023/02/09 12:23:57;;;;;;;9.70;4.97;;;10.00;57.30;;;;;;20917176;28;20404;-64
2023/02/09 12:33:58;;;;;;;8.20;5.25;;;10.20;57.10;;;;;;20917090;28;20080;-66
2023/02/09 12:44:08;;;;;;;7.63;4.05;;;10.40;55.10;;;;;;20916015;28;20079;-67
2023/02/09 12:54:46;;;;;;;5.70;4.05;;;10.70;53.30;;;;;;20916136;28;20049;-67
2023/02/09 13:05:32;;;;;;;6.60;4.28;;;11.00;52.30;;;;;;20915762;28;20056;-68
2023/02/09 13:15:45;;;;;;;7.65;4.72;;;11.00;50.40;;;;;;20740395;28;20085;-68
2023/02/09 13:25:47;;;;;;;5.93;4.10;;;11.10;49.60;;;;;;20740500;28;20129;-69
2023/02/09 13:36:10;;;;;;;5.60;3.95;;;11.10;48.00;;;;;;20723155;28;20409;-68
2023/02/09 13:46:26;;;;;;;5.50;4.40;;;11.20;46.80;;;;;;20788769;28;20136;-62
2023/02/09 13:56:29;;;;;;;4.55;3.28;;;11.30;46.00;;;;;;20924615;28;20388;-64
2023/02/09 14:06:48;;;;;;;6.07;3.92;;;11.40;44.50;;;;;;20928444;28;20045;-63
2023/02/09 14:17:10;;;;;;;5.80;4.45;;;11.60;43.40;;;;;;20926363;28;20045;-58
2023/02/09 14:27:21;;;;;;;4.82;4.28;;;11.70;44.10;;;;;;20925280;28;20083;-55
2023/02/09 14:37:26;;;;;;;6.30;3.78;;;11.70;43.80;;;;;;20924756;28;20045;-64
2023/02/09 14:47:45;;;;;;;6.28;4.18;;;11.80;43.30;;;;;;20931707;28;20053;-57
2023/02/09 14:57:51;;;;;;;5.30;4.07;;;11.90;42.70;;;;;;20936356;28;20055;-55
2023/02/09 15:07:57;;;;;;;5.97;3.72;;;11.70;42.80;;;;;;20921652;28;20052;-59
2023/02/09 15:18:02;;;;;;;5.70;3.70;;;11.90;42.50;;;;;;20922633;28;20056;-60
2023/02/09 15:28:36;;;;;;;6.47;3.92;;;11.90;41.70;;;;;;20918390;28;20052;-66
2023/02/09 15:38:38;;;;;;;4.53;3.08;;;12.00;41.70;;;;;;20746733;28;20510;-58
2023/02/09 15:48:40;;;;;;;7.35;3.85;;;12.00;39.50;;;;;;20746244;28;20125;-56
2023/02/09 15:58:44;;;;;;;9.70;3.50;;;11.90;38.60;;;;;;20745006;28;20050;-61
2023/02/09 16:08:47;;;;;;;5.10;3.70;;;11.80;39.40;;;;;;20789566;28;20102;-68
2023/02/09 16:18:49;;;;;;;8.15;4.55;;;11.80;39.90;;;;;;20916673;28;20045;-58
2023/02/09 16:28:52;;;;;;;5.10;3.83;;;11.80;40.50;;;;;;20915518;28;20061;-63
2023/02/09 16:38:54;;;;;;;6.22;3.38;;;11.90;40.40;;;;;;20916333;28;20464;-60
2023/02/09 16:48:59;;;;;;;4.30;3.20;;;12.00;40.80;;;;;;20916591;28;20049;-56
2023/02/09 16:59:01;;;;;;;4.27;2.83;;;12.10;42.30;;;;;;20916221;28;20051;-58
2023/02/09 17:09:02;;;;;;;4.07;3.15;;;11.90;43.60;;;;;;20915020;28;20049;-64
2023/02/09 17:19:11;;;;;;;5.65;2.72;;;11.80;43.40;;;;;;20914348;28;20044;-68
2023/02/09 17:29:13;;;;;;;2.95;1.92;;;11.60;42.80;;;;;;20912277;28;20056;-68
2023/02/09 17:39:17;;;;;;;4.25;2.17;;;11.50;41.80;;;;;;20912918;28;20489;-60
2023/02/09 17:49:19;;;;;;;8.18;4.32;;;11.30;42.00;;;;;;20912084;28;20045;-55
2023/02/09 17:59:21;;;;;;;7.07;4.57;;;11.30;42.30;;;;;;20913453;28;20476;-62
2023/02/09 18:09:23;;;;;;;13.02;4.47;;;11.20;43.90;;;;;;20911315;28;20049;-59
2023/02/09 18:19:25;;;;;;;8.00;5.15;;;11.00;46.30;;;;;;20912189;28;20052;-70
2023/02/09 18:29:29;;;;;;;12.73;6.68;;;11.00;48.00;;;;;;20910410;28;20053;-68
2023/02/09 18:39:34;;;;;;;11.77;9.00;;;10.90;49.00;;;;;;20916273;28;20052;-65
2023/02/09 18:49:36;;;;;;;12.18;7.13;;;10.80;49.30;;;;;;20924615;28;20053;-56
2023/02/09 18:59:39;;;;;;;7.70;5.68;;;10.70;49.70;;;;;;20939816;28;20178;-55
2023/02/09 19:09:44;;;;;;;8.40;5.40;;;10.70;50.10;;;;;;20932397;28;20049;-62
2023/02/09 19:19:47;;;;;;;;;;;10.70;50.60;;;;;;20923457;28;20041;-58
2023/02/09 19:29:53;;;;;;;11.25;7.50;;;10.60;50.60;;;;;;20920897;28;19920;-54
2023/02/09 19:40:09;;;;;;;9.57;6.90;;;10.50;51.20;;;;;;20921420;28;20040;-55
2023/02/09 19:50:14;;;;;;;12.77;7.28;;;10.40;51.20;;;;;;20920950;28;20378;-56
2023/02/09 20:00:17;;;;;;;11.27;7.53;;;10.40;51.10;;;;;;20920406;28;20080;-56
2023/02/09 20:10:20;;;;;;;13.57;8.02;;;10.30;51.20;;;;;;20921694;28;20060;-57
2023/02/09 20:20:23;;;;;;;15.15;9.80;;;10.20;51.40;;;;;;20926412;28;20041;-67
2023/02/09 20:30:25;;;;;;;13.23;9.38;;;10.20;51.70;;;;;;20921784;28;20136;-58
2023/02/09 20:40:29;;;;;;;13.32;7.88;;;10.10;52.40;;;;;;20917148;28;20063;-56
2023/02/09 20:50:34;;;;;;;15.57;10.18;;;10.00;52.40;;;;;;20916761;28;20115;-68
2023/02/09 21:00:36;;;;;;;16.93;9.70;;;9.90;53.10;;;;;;20914777;28;20102;-55
2023/02/09 21:10:38;;;;;;;16.80;10.07;;;9.70;53.50;;;;;;20915837;28;20449;-66
2023/02/09 21:20:40;;;;;;;15.15;9.00;;;9.50;54.10;;;;;;20915226;28;20084;-67
2023/02/09 21:30:42;;;;;;;19.33;11.40;;;9.50;54.70;;;;;;20912770;28;20049;-68
2023/02/09 21:40:44;;;;;;;13.90;7.30;;;9.40;55.00;;;;;;20913191;28;20136;-65
2023/02/09 21:50:46;;;;;;;13.75;8.30;;;9.20;55.40;;;;;;20914160;28;20114;-67
2023/02/09 22:00:56;;;;;;;10.25;6.30;;;9.20;55.60;;;;;;20913013;28;20125;-55
2023/02/09 22:11:00;;;;;;;8.82;5.10;;;9.10;56.00;;;;;;20911988;28;20500;-55
2023/02/09 22:21:07;;;;;;;10.50;4.67;;;8.90;56.20;;;;;;20926476;28;20041;-63
2023/02/09 22:31:11;;;;;;;9.80;6.25;;;8.80;56.80;;;;;;20927028;28;20505;-70
2023/02/09 22:41:23;;;;;;;7.75;5.70;;;8.60;57.40;;;;;;20925405;28;20053;-69
2023/02/09 22:51:28;;;;;;;9.10;5.60;;;8.30;58.00;;;;;;20924602;28;20103;-60
2023/02/09 23:01:29;;;;;;;8.30;4.23;;;8.00;57.70;;;;;;20925081;28;20041;-68
2023/02/09 23:11:31;;;;;;;8.52;4.07;;;7.50;57.40;;;;;;20922901;28;20045;-67
2023/02/09 23:21:37;;;;;;;8.27;4.68;;;7.30;57.70;;;;;;20922815;28;20103;-64
2023/02/09 23:31:39;;;;;;;8.38;5.47;;;7.10;57.90;;;;;;20922610;28;20429;-66
2023/02/09 23:41:41;;;;;;;10.43;5.75;;;7.00;58.30;;;;;;20921010;28;20132;-60
2023/02/09 23:51:45;;;;;;;9.18;5.10;;;7.10;58.40;;;;;;20920807;28;20132;-70
